createdAt,value
2023-05-10T00:00:23.550Z,1.00
2023-05-10T00:02:50.820Z,1.00
2023-05-10T00:05:17.862Z,1.00
2023-05-10T00:07:46.105Z,1.00
2023-05-10T00:10:13.352Z,1.00
2023-05-10T00:12:40.401Z,1.00
2023-05-10T00:15:09.317Z,1.00
2023-05-10T00:17:36.296Z,1.00
2023-05-10T00:20:03.701Z,1.00
2023-05-10T00:22:30.561Z,1.00
2023-05-10T00:24:57.228Z,1.00
2023-05-10T00:27:24.159Z,1.00
2023-05-10T00:29:50.967Z,1.00
2023-05-10T00:32:18.065Z,1.00
2023-05-10T00:34:45.043Z,1.00
2023-05-10T00:37:12.187Z,1.00
2023-05-10T00:39:38.879Z,1.00
2023-05-10T00:42:05.613Z,1.00
2023-05-10T00:44:32.386Z,1.00
2023-05-10T00:47:00.678Z,1.00
2023-05-10T00:49:27.744Z,1.00
2023-05-10T00:51:54.641Z,1.00
2023-05-10T00:54:21.737Z,1.00
2023-05-10T00:56:50.230Z,1.00
2023-05-10T00:59:18.590Z,1.00
2023-05-10T01:01:46.592Z,1.00
2023-05-10T01:04:14.730Z,1.00
2023-05-10T01:06:42.610Z,1.00
2023-05-10T01:09:09.579Z,1.00
2023-05-10T01:11:38.102Z,1.00
2023-05-10T01:14:05.693Z,1.00
2023-05-10T01:16:39.372Z,1.00
2023-05-10T01:19:22.972Z,1.00
2023-05-10T01:21:58.477Z,1.00
2023-05-10T01:24:49.933Z,1.00
2023-05-10T01:27:45.822Z,1.00
2023-05-10T01:30:46.749Z,1.00
2023-05-10T01:33:20.538Z,1.00
2023-05-10T01:35:56.485Z,1.00
2023-05-10T01:38:59.165Z,1.00
2023-05-10T01:41:37.869Z,1.00
2023-05-10T01:44:27.763Z,1.00
2023-05-10T01:47:18.292Z,1.00
2023-05-10T01:49:51.042Z,1.00
2023-05-10T01:52:22.607Z,1.00
2023-05-10T01:55:05.953Z,1.00
2023-05-10T01:57:35.165Z,1.00
2023-05-10T02:00:04.739Z,1.00
2023-05-10T02:02:39.865Z,1.00
2023-05-10T02:05:08.260Z,1.00
2023-05-10T02:07:37.828Z,1.00
2023-05-10T02:10:10.389Z,1.00
2023-05-10T02:12:40.572Z,1.00
2023-05-10T02:15:08.898Z,1.00
2023-05-10T02:17:38.096Z,1.00
2023-05-10T02:20:07.296Z,1.00
2023-05-10T02:22:35.958Z,1.00
2023-05-10T02:25:04.908Z,1.00
2023-05-10T02:27:32.657Z,1.00
2023-05-10T02:29:59.840Z,1.00
2023-05-10T02:32:28.783Z,1.00
2023-05-10T02:34:57.079Z,1.00
2023-05-10T02:37:25.017Z,1.00
2023-05-10T02:39:54.830Z,1.00
2023-05-10T02:42:26.234Z,1.00
2023-05-10T02:44:56.688Z,1.00
2023-05-10T02:47:23.789Z,1.00
2023-05-10T02:49:50.642Z,1.00
2023-05-10T02:52:23.668Z,1.00
2023-05-10T02:54:53.904Z,1.00
2023-05-10T02:57:31.289Z,1.00
2023-05-10T02:59:58.147Z,1.00
2023-05-10T03:02:24.978Z,1.00
2023-05-10T03:04:52.199Z,1.00
2023-05-10T03:07:22.315Z,1.00
2023-05-10T03:09:52.930Z,1.00
2023-05-10T03:12:51.901Z,1.00
2023-05-10T03:15:57.097Z,1.00
2023-05-10T03:18:29.787Z,1.00
2023-05-10T03:21:06.311Z,1.00
2023-05-10T03:23:57.074Z,1.00
2023-05-10T03:26:28.478Z,1.00
2023-05-10T03:28:56.594Z,1.00
2023-05-10T03:31:23.591Z,1.00
2023-05-10T03:33:52.154Z,1.00
2023-05-10T03:36:19.631Z,1.00
2023-05-10T03:38:46.356Z,1.00
2023-05-10T03:41:13.417Z,1.00
2023-05-10T03:43:40.995Z,1.00
2023-05-10T03:46:07.839Z,1.00
2023-05-10T03:48:34.710Z,1.00
2023-05-10T03:51:01.426Z,1.00
2023-05-10T03:53:28.100Z,1.00
2023-05-10T03:55:54.848Z,1.00
2023-05-10T03:58:21.484Z,1.00
2023-05-10T04:00:48.228Z,1.00
2023-05-10T04:03:15.381Z,1.00
2023-05-10T04:05:42.273Z,1.00
2023-05-10T04:08:09.009Z,1.00
2023-05-10T04:10:35.737Z,1.00
2023-05-10T04:13:02.555Z,1.00
2023-05-10T04:15:29.710Z,1.00
2023-05-10T04:17:56.462Z,1.00
2023-05-10T04:20:23.651Z,1.00
2023-05-10T04:22:50.349Z,1.00
2023-05-10T04:25:17.221Z,1.00
2023-05-10T04:27:43.931Z,1.00
2023-05-10T04:30:11.032Z,1.00
2023-05-10T04:32:38.000Z,1.00
2023-05-10T04:35:05.791Z,1.00
2023-05-10T04:37:32.498Z,1.00
2023-05-10T04:40:00.902Z,1.00
2023-05-10T04:42:27.628Z,1.00
2023-05-10T04:44:54.237Z,1.00
2023-05-10T04:47:21.028Z,1.00
2023-05-10T04:49:48.049Z,1.00
2023-05-10T04:52:16.270Z,1.00
2023-05-10T04:54:43.190Z,1.00
2023-05-10T04:57:09.957Z,1.00
2023-05-10T04:59:38.422Z,1.00
2023-05-10T05:02:06.281Z,1.00
2023-05-10T05:04:33.181Z,1.00
2023-05-10T05:07:00.144Z,1.00
2023-05-10T05:09:26.887Z,1.00
2023-05-10T05:11:53.776Z,1.00
2023-05-10T05:14:22.225Z,1.00
2023-05-10T05:16:48.948Z,1.00
2023-05-10T05:19:15.719Z,1.00
2023-05-10T05:21:42.620Z,1.00
2023-05-10T05:24:09.671Z,1.00
2023-05-10T05:26:36.440Z,1.00
2023-05-10T05:29:03.372Z,1.00
2023-05-10T05:31:30.592Z,1.00
2023-05-10T05:33:57.401Z,1.00
2023-05-10T05:36:24.373Z,1.00
2023-05-10T05:38:51.201Z,1.00
2023-05-10T05:41:17.980Z,1.00
2023-05-10T05:43:45.345Z,1.00
2023-05-10T05:46:12.509Z,1.00
2023-05-10T05:48:39.404Z,1.00
2023-05-10T05:51:07.356Z,1.00
2023-05-10T05:53:34.480Z,1.00
2023-05-10T05:56:01.268Z,1.00
2023-05-10T05:58:28.523Z,1.00
2023-05-10T06:00:55.279Z,1.00
2023-05-10T06:03:22.479Z,1.00
2023-05-10T06:05:49.467Z,1.00
2023-05-10T06:08:16.167Z,1.00
2023-05-10T06:10:43.022Z,1.00
2023-05-10T06:13:09.867Z,1.00
2023-05-10T06:15:36.709Z,1.00
2023-05-10T06:18:05.126Z,1.00
2023-05-10T06:20:32.616Z,1.00
2023-05-10T06:22:59.778Z,1.00
2023-05-10T06:25:26.653Z,1.00
2023-05-10T06:27:58.198Z,1.00
2023-05-10T06:30:29.406Z,1.00
2023-05-10T06:32:56.734Z,1.00
2023-05-10T06:35:23.898Z,1.00
2023-05-10T06:37:51.032Z,1.00
2023-05-10T06:40:18.048Z,1.00
2023-05-10T06:42:46.286Z,1.00
2023-05-10T06:45:13.777Z,1.00
2023-05-10T06:47:40.484Z,1.00
2023-05-10T06:50:08.807Z,1.00
2023-05-10T06:52:35.635Z,1.00
2023-05-10T06:55:03.055Z,1.00
2023-05-10T06:57:31.619Z,1.00
2023-05-10T06:59:59.990Z,1.00
2023-05-10T07:02:27.220Z,1.00
2023-05-10T07:04:54.271Z,1.00
2023-05-10T07:07:21.031Z,1.00
2023-05-10T07:09:47.951Z,1.00
2023-05-10T07:12:15.863Z,1.00
2023-05-10T07:14:43.497Z,1.00
2023-05-10T07:17:10.944Z,1.00
2023-05-10T07:19:37.796Z,1.00
2023-05-10T07:22:04.611Z,1.00
2023-05-10T07:24:32.305Z,1.00
2023-05-10T07:26:59.093Z,1.00
2023-05-10T07:29:26.045Z,1.00
2023-05-10T07:31:52.912Z,1.00
2023-05-10T07:34:19.729Z,1.00
2023-05-10T07:36:46.545Z,1.00
2023-05-10T07:39:21.223Z,1.00
2023-05-10T07:41:53.236Z,1.00
2023-05-10T07:44:21.307Z,1.00
2023-05-10T07:46:49.581Z,1.00
2023-05-10T07:49:16.800Z,1.00
2023-05-10T07:51:43.748Z,1.00
2023-05-10T07:54:10.557Z,1.00
2023-05-10T07:56:37.477Z,1.00
2023-05-10T07:59:06.068Z,1.00
2023-05-10T08:01:33.768Z,1.00
2023-05-10T08:04:01.491Z,1.00
2023-05-10T08:06:30.687Z,1.00
2023-05-10T08:08:57.731Z,1.00
2023-05-10T08:11:24.612Z,1.00
2023-05-10T08:13:52.047Z,1.00
2023-05-10T08:16:19.364Z,1.00
2023-05-10T08:18:48.032Z,1.00
2023-05-10T08:21:15.564Z,1.00
2023-05-10T08:23:42.334Z,1.00
2023-05-10T08:26:08.948Z,1.00
2023-05-10T08:28:35.696Z,1.00
2023-05-10T08:31:02.447Z,1.00
2023-05-10T08:33:29.250Z,1.00
2023-05-10T08:35:56.002Z,1.00
2023-05-10T08:38:22.853Z,1.00
2023-05-10T08:40:51.850Z,1.00
2023-05-10T08:43:19.184Z,1.00
2023-05-10T08:45:48.018Z,1.00
2023-05-10T08:48:16.234Z,1.00
2023-05-10T08:50:43.967Z,1.00
2023-05-10T08:53:12.912Z,1.00
2023-05-10T08:55:41.317Z,1.00
2023-05-10T08:58:08.186Z,1.00
2023-05-10T09:00:36.066Z,1.00
2023-05-10T09:03:05.163Z,1.00
2023-05-10T09:05:32.226Z,1.00
2023-05-10T09:08:01.463Z,1.00
2023-05-10T09:10:29.283Z,1.00
2023-05-10T09:12:59.305Z,1.00
2023-05-10T09:15:26.900Z,1.00
2023-05-10T09:17:53.922Z,1.00
2023-05-10T09:20:21.456Z,1.00
2023-05-10T09:22:48.381Z,1.00
2023-05-10T09:25:17.318Z,1.00
2023-05-10T09:27:48.389Z,1.00
2023-05-10T09:30:27.658Z,1.00
2023-05-10T09:32:55.422Z,1.00
2023-05-10T09:35:25.082Z,1.00
2023-05-10T09:37:56.095Z,1.00
2023-05-10T09:40:25.013Z,1.00
2023-05-10T09:43:07.823Z,1.00
2023-05-10T09:45:38.669Z,1.00
2023-05-10T09:48:06.081Z,1.00
2023-05-10T09:50:32.866Z,1.00
2023-05-10T09:53:04.682Z,1.00
2023-05-10T09:55:41.582Z,1.00
2023-05-10T09:58:11.664Z,1.00
2023-05-10T10:00:41.149Z,1.00
2023-05-10T10:03:16.257Z,1.00
2023-05-10T10:05:44.619Z,1.00
2023-05-10T10:08:12.841Z,1.00
2023-05-10T10:10:41.620Z,1.00
2023-05-10T10:13:08.823Z,1.00
2023-05-10T10:15:36.126Z,1.00
2023-05-10T10:18:04.981Z,1.00
2023-05-10T10:20:31.904Z,1.00
2023-05-10T10:22:58.498Z,1.00
2023-05-10T10:25:26.423Z,1.00
2023-05-10T10:27:52.995Z,1.00
2023-05-10T10:30:42.693Z,1.00
2023-05-10T10:33:40.906Z,1.00
2023-05-10T10:36:08.270Z,1.00
2023-05-10T10:38:47.228Z,1.00
2023-05-10T10:41:31.670Z,1.00
2023-05-10T10:44:23.304Z,1.00
2023-05-10T10:47:24.321Z,1.00
2023-05-10T10:50:04.408Z,1.00
2023-05-10T10:52:36.342Z,1.00
2023-05-10T10:55:06.305Z,1.00
2023-05-10T10:57:43.126Z,1.00
2023-05-10T11:00:29.390Z,1.00
2023-05-10T11:03:07.941Z,1.00
2023-05-10T11:05:42.348Z,1.00
2023-05-10T11:08:17.144Z,1.00
2023-05-10T11:11:07.819Z,1.00
2023-05-10T11:13:51.185Z,1.00
2023-05-10T11:16:26.624Z,1.00
2023-05-10T11:19:11.443Z,1.00
2023-05-10T11:21:47.815Z,1.00
2023-05-10T11:24:34.557Z,1.00
2023-05-10T11:27:01.991Z,1.00
2023-05-10T11:29:28.864Z,1.00
2023-05-10T11:31:58.988Z,1.00
2023-05-10T11:34:34.770Z,1.00
2023-05-10T11:37:02.116Z,1.00
2023-05-10T11:39:30.199Z,1.00
2023-05-10T11:41:58.046Z,1.00
2023-05-10T11:44:30.011Z,1.00
2023-05-10T11:47:02.796Z,1.00
2023-05-10T11:49:29.851Z,1.00
2023-05-10T11:52:09.627Z,1.00
2023-05-10T11:54:36.991Z,1.00
2023-05-10T11:57:04.061Z,1.00
2023-05-10T11:59:31.075Z,1.00
2023-05-10T12:01:58.177Z,1.00
2023-05-10T12:04:25.786Z,1.00
2023-05-10T12:06:52.574Z,1.00
2023-05-10T12:09:25.477Z,1.00
2023-05-10T12:11:58.603Z,1.00
2023-05-10T12:14:25.769Z,1.00
2023-05-10T12:16:52.676Z,1.00
2023-05-10T12:19:21.526Z,1.00
2023-05-10T12:21:48.877Z,1.00
2023-05-10T12:24:18.993Z,1.00
2023-05-10T12:26:46.863Z,1.00
2023-05-10T12:29:18.408Z,1.00
2023-05-10T12:31:52.215Z,1.00
2023-05-10T12:34:39.651Z,1.00
2023-05-10T12:37:06.450Z,1.00
2023-05-10T12:39:47.030Z,1.00
2023-05-10T12:42:13.892Z,1.00
2023-05-10T12:44:41.290Z,1.00
2023-05-10T12:47:08.298Z,1.00
2023-05-10T12:49:35.212Z,1.00
2023-05-10T12:52:02.167Z,1.00
2023-05-10T12:54:29.025Z,1.00
2023-05-10T12:56:56.034Z,1.00
2023-05-10T12:59:23.871Z,1.00
2023-05-10T13:01:50.899Z,1.00
2023-05-10T13:04:17.596Z,1.00
2023-05-10T13:06:44.398Z,1.00
2023-05-10T13:09:11.166Z,1.00
2023-05-10T13:11:38.150Z,1.00
2023-05-10T13:14:04.918Z,1.00
2023-05-10T13:16:32.208Z,1.00
2023-05-10T13:18:59.544Z,1.00
2023-05-10T13:21:26.437Z,1.00
2023-05-10T13:23:53.756Z,1.00
2023-05-10T13:26:21.045Z,1.00
2023-05-10T13:28:47.786Z,1.00
2023-05-10T13:31:14.675Z,1.00
2023-05-10T13:33:41.415Z,1.00
2023-05-10T13:36:08.414Z,1.00
2023-05-10T13:38:35.251Z,1.00
2023-05-10T13:41:01.915Z,1.00
2023-05-10T13:43:30.077Z,1.00
2023-05-10T13:45:56.972Z,1.00
2023-05-10T13:48:23.695Z,1.00
2023-05-10T13:50:50.981Z,1.00
2023-05-10T13:53:17.851Z,1.00
2023-05-10T13:55:44.677Z,1.00
2023-05-10T13:58:11.757Z,1.00
2023-05-10T14:00:38.515Z,1.00
2023-05-10T14:03:08.108Z,1.00
2023-05-10T14:05:35.910Z,1.00
2023-05-10T14:08:02.684Z,1.00
2023-05-10T14:10:29.449Z,1.00
2023-05-10T14:12:56.494Z,1.00
2023-05-10T14:15:23.356Z,1.00
2023-05-10T14:17:50.207Z,1.00
2023-05-10T14:20:17.080Z,1.00
2023-05-10T14:22:44.108Z,1.00
2023-05-10T14:25:11.201Z,1.00
2023-05-10T14:27:38.274Z,1.00
2023-05-10T14:30:05.620Z,1.00
2023-05-10T14:32:33.271Z,1.00
2023-05-10T14:35:00.762Z,1.00
2023-05-10T14:37:27.914Z,1.00
2023-05-10T14:39:55.143Z,1.00
2023-05-10T14:42:22.356Z,1.00
2023-05-10T14:44:49.069Z,1.00
2023-05-10T14:47:15.882Z,1.00
2023-05-10T14:49:42.622Z,1.00
2023-05-10T14:52:09.277Z,1.00
2023-05-10T14:54:36.171Z,1.00
2023-05-10T14:57:04.559Z,1.00
2023-05-10T14:59:31.231Z,1.00
2023-05-10T15:01:58.591Z,1.00
2023-05-10T15:04:27.080Z,1.00
2023-05-10T15:07:00.007Z,1.00
2023-05-10T15:09:28.484Z,1.00
2023-05-10T15:11:55.894Z,1.00
2023-05-10T15:14:23.597Z,1.00
2023-05-10T15:16:50.335Z,1.00
2023-05-10T15:19:16.935Z,1.00
2023-05-10T15:21:45.519Z,1.00
2023-05-10T15:24:12.212Z,1.00
2023-05-10T15:26:38.952Z,1.00
2023-05-10T15:29:05.708Z,1.00
2023-05-10T15:31:32.376Z,1.00
2023-05-10T15:34:00.201Z,1.00
2023-05-10T15:36:27.005Z,1.00
2023-05-10T15:38:55.106Z,1.00
2023-05-10T15:41:21.862Z,1.00
2023-05-10T15:43:48.546Z,1.00
2023-05-10T15:46:15.226Z,1.00
2023-05-10T15:48:42.534Z,1.00
2023-05-10T15:51:09.745Z,1.00
2023-05-10T15:53:36.460Z,1.00
2023-05-10T15:56:04.201Z,1.00
2023-05-10T15:58:31.032Z,1.00
2023-05-10T16:00:57.926Z,1.00
2023-05-10T16:03:24.912Z,1.00
2023-05-10T16:05:51.765Z,1.00
2023-05-10T16:08:18.455Z,1.00
2023-05-10T16:10:45.091Z,1.00
2023-05-10T16:13:11.826Z,1.00
2023-05-10T16:15:38.551Z,1.00
2023-05-10T16:18:05.571Z,1.00
2023-05-10T16:20:33.028Z,1.00
2023-05-10T16:23:07.256Z,1.00
2023-05-10T16:25:34.245Z,1.00
2023-05-10T16:28:01.421Z,1.00
2023-05-10T16:30:30.268Z,1.00
2023-05-10T16:32:58.075Z,1.00
2023-05-10T16:35:25.100Z,1.00
2023-05-10T16:37:52.133Z,1.00
2023-05-10T16:40:19.454Z,1.00
2023-05-10T16:42:46.518Z,1.00
2023-05-10T16:45:13.403Z,1.00
2023-05-10T16:47:41.037Z,1.00
2023-05-10T16:50:08.778Z,1.00
2023-05-10T16:52:36.220Z,1.00
2023-05-10T16:55:04.364Z,1.00
2023-05-10T16:57:32.990Z,1.00
2023-05-10T16:59:59.764Z,1.00
2023-05-10T17:02:27.170Z,1.00
2023-05-10T17:04:56.094Z,1.00
2023-05-10T17:07:26.420Z,1.00
2023-05-10T17:09:53.365Z,1.00
2023-05-10T17:12:20.695Z,1.00
2023-05-10T17:14:47.857Z,1.00
2023-05-10T17:17:14.605Z,1.00
2023-05-10T17:19:45.248Z,1.00
2023-05-10T17:22:13.485Z,1.00
2023-05-10T17:24:40.345Z,1.00
2023-05-10T17:27:07.049Z,1.00
2023-05-10T17:29:33.955Z,1.00
2023-05-10T17:32:00.938Z,1.00
2023-05-10T17:34:28.442Z,1.00
2023-05-10T17:36:55.631Z,1.00
2023-05-10T17:39:22.530Z,1.00
2023-05-10T17:41:49.238Z,1.00
2023-05-10T17:44:16.024Z,1.00
2023-05-10T17:46:42.605Z,1.00
2023-05-10T17:49:09.718Z,1.00
2023-05-10T17:51:36.623Z,1.00
2023-05-10T17:54:03.471Z,1.00
2023-05-10T17:56:30.307Z,1.00
2023-05-10T17:58:57.204Z,1.00
2023-05-10T18:01:23.871Z,1.00
2023-05-10T18:03:51.845Z,1.00
2023-05-10T18:06:19.990Z,1.00
2023-05-10T18:08:46.736Z,1.00
2023-05-10T18:11:13.583Z,1.00
2023-05-10T18:13:40.602Z,1.00
2023-05-10T18:16:08.879Z,1.00
2023-05-10T18:18:35.779Z,1.00
2023-05-10T18:21:03.814Z,1.00
2023-05-10T18:23:30.596Z,1.00
2023-05-10T18:25:57.659Z,1.00
2023-05-10T18:28:24.623Z,1.00
2023-05-10T18:30:51.394Z,1.00
2023-05-10T18:33:18.256Z,1.00
2023-05-10T18:35:44.967Z,1.00
2023-05-10T18:38:12.523Z,1.00
2023-05-10T18:40:40.059Z,1.00
2023-05-10T18:43:06.883Z,1.00
2023-05-10T18:45:33.620Z,1.00
2023-05-10T18:48:00.241Z,1.00
2023-05-10T18:50:26.960Z,1.00
2023-05-10T18:52:56.293Z,1.00
2023-05-10T18:55:25.736Z,1.00
2023-05-10T18:57:52.621Z,1.00
2023-05-10T19:00:20.566Z,1.00
2023-05-10T19:02:47.801Z,1.00
2023-05-10T19:05:15.389Z,1.00
2023-05-10T19:07:43.811Z,1.00
2023-05-10T19:10:12.898Z,1.00
2023-05-10T19:12:41.821Z,1.00
2023-05-10T19:15:09.002Z,1.00
2023-05-10T19:17:36.551Z,1.00
2023-05-10T19:20:04.178Z,1.00
2023-05-10T19:22:45.380Z,1.00
2023-05-10T19:25:19.013Z,1.00
2023-05-10T19:27:46.466Z,1.00
2023-05-10T19:30:13.199Z,1.00
2023-05-10T19:32:40.004Z,1.00
2023-05-10T19:35:06.921Z,1.00
2023-05-10T19:37:33.634Z,1.00
2023-05-10T19:40:00.374Z,1.00
2023-05-10T19:42:27.148Z,1.00
2023-05-10T19:44:53.816Z,1.00
2023-05-10T19:47:20.484Z,1.00
2023-05-10T19:49:47.126Z,1.00
2023-05-10T19:52:13.828Z,1.00
2023-05-10T19:54:40.432Z,1.00
2023-05-10T19:57:07.066Z,1.00
2023-05-10T19:59:33.681Z,1.00
2023-05-10T20:02:00.310Z,1.00
2023-05-10T20:04:28.778Z,1.00
2023-05-10T20:06:55.561Z,1.00
2023-05-10T20:09:22.176Z,1.00
2023-05-10T20:11:49.346Z,1.00
2023-05-10T20:14:16.590Z,1.00
2023-05-10T20:16:43.255Z,1.00
2023-05-10T20:19:11.728Z,1.00
2023-05-10T20:21:38.440Z,1.00
2023-05-10T20:24:06.774Z,1.00
2023-05-10T20:26:34.899Z,1.00
2023-05-10T20:29:01.589Z,1.00
2023-05-10T20:31:28.491Z,1.00
2023-05-10T20:33:55.291Z,1.00
2023-05-10T20:36:23.516Z,1.00
2023-05-10T20:38:50.420Z,1.00
2023-05-10T20:41:17.111Z,1.00
2023-05-10T20:43:43.917Z,1.00
2023-05-10T20:46:11.457Z,1.00
2023-05-10T20:48:38.292Z,1.00
2023-05-10T20:51:05.075Z,1.00
2023-05-10T20:53:31.773Z,1.00
2023-05-10T20:55:58.635Z,1.00
2023-05-10T20:58:25.376Z,1.00
2023-05-10T21:00:52.005Z,5.00
2023-05-10T21:03:18.754Z,9.10
2023-05-10T21:05:45.563Z,19.70
2023-05-10T21:08:12.470Z,13.40
2023-05-10T21:10:39.981Z,13.20
2023-05-10T21:13:06.981Z,18.50
2023-05-10T21:15:34.016Z,12.50
2023-05-10T21:18:02.348Z,1.00
2023-05-10T21:20:30.014Z,11.20
2023-05-10T21:22:56.798Z,56.80
2023-05-10T21:25:23.654Z,79.80
2023-05-10T21:27:50.277Z,88.70
2023-05-10T21:30:17.535Z,96.30
2023-05-10T21:32:44.480Z,96.70
2023-05-10T21:35:11.143Z,99.90
2023-05-10T21:37:37.818Z,99.90
2023-05-10T21:40:04.892Z,99.90
2023-05-10T21:42:32.003Z,99.90
2023-05-10T21:44:58.682Z,99.90
2023-05-10T21:47:25.341Z,99.90
2023-05-10T21:49:51.940Z,99.90
2023-05-10T21:52:18.734Z,99.90
2023-05-10T21:54:45.443Z,99.90
2023-05-10T21:57:12.050Z,99.90
2023-05-10T21:59:39.456Z,99.90
2023-05-10T22:02:06.162Z,99.90
2023-05-10T22:04:32.810Z,99.90
2023-05-10T22:06:59.435Z,99.90
2023-05-10T22:09:26.091Z,99.90
2023-05-10T22:11:52.773Z,99.90
2023-05-10T22:14:19.519Z,99.90
2023-05-10T22:16:46.215Z,99.90
2023-05-10T22:19:12.900Z,99.90
2023-05-10T22:21:39.464Z,99.90
2023-05-10T22:24:06.358Z,99.90
2023-05-10T22:26:33.006Z,99.90
2023-05-10T22:28:59.621Z,99.90
2023-05-10T22:31:26.749Z,99.90
2023-05-10T22:33:53.402Z,99.90
2023-05-10T22:36:20.028Z,99.90
2023-05-10T22:38:46.636Z,99.90
2023-05-10T22:41:13.248Z,99.90
2023-05-10T22:43:39.863Z,99.90
2023-05-10T22:46:06.502Z,99.90
2023-05-10T22:48:35.472Z,99.90
2023-05-10T22:51:02.038Z,1.00
2023-05-10T22:53:28.634Z,1.00
2023-05-10T22:55:55.424Z,1.00
2023-05-10T22:58:22.178Z,1.00
2023-05-10T23:00:48.784Z,1.00
2023-05-10T23:03:15.485Z,1.00
2023-05-10T23:05:42.143Z,1.00
2023-05-10T23:08:08.848Z,1.00
2023-05-10T23:10:37.826Z,1.00
2023-05-10T23:13:06.276Z,1.00
2023-05-10T23:15:33.180Z,1.00
2023-05-10T23:18:02.803Z,1.00
2023-05-10T23:20:29.782Z,1.00
2023-05-10T23:22:56.726Z,1.00
2023-05-10T23:25:23.410Z,1.00
2023-05-10T23:27:50.182Z,1.00
2023-05-10T23:30:17.294Z,1.00
2023-05-10T23:32:44.179Z,1.00
2023-05-10T23:35:10.956Z,1.00
2023-05-10T23:37:37.761Z,57.10
2023-05-10T23:40:05.013Z,34.80
2023-05-10T23:42:32.742Z,75.30
2023-05-10T23:44:59.377Z,99.90
2023-05-10T23:47:26.375Z,99.90
2023-05-10T23:49:52.968Z,99.90
2023-05-10T23:52:22.787Z,99.90
2023-05-10T23:54:49.520Z,99.90
2023-05-10T23:57:16.530Z,99.90
2023-05-10T23:59:43.144Z,99.90
